Time;durP1;ratioP1;P1;durP2;ratioP2;P2;SDS_P1;SDS_P2;PMS_P1;PMS_P2;Temp;Humidity;BMP_temperature;BMP_pressure;BME280_temperature;BME280_humidity;BME280_pressure;Samples;Min_cycle;Max_cycle;Signal;HPM_P1;HPM_P2
2022/06/02 02:47:37;;;;;;;11.13;5.55;;;15.30;99.90;;;;;;5426921;23;88283;-81
2022/06/02 02:50:09;;;;;;;7.15;4.70;;;15.20;99.90;;;;;;4925725;28;87005;-79
2022/06/02 02:53:02;;;;;;;8.52;4.65;;;15.20;99.90;;;;;;4916623;28;88635;-78
2022/06/02 02:55:56;;;;;;;7.40;4.10;;;15.30;99.90;;;;;;4913005;28;88879;-78
2022/06/02 02:58:45;;;;;;;11.40;5.18;;;15.30;99.90;;;;;;4912978;28;86801;-78
2022/06/02 03:01:24;;;;;;;10.32;4.82;;;15.30;99.90;;;;;;4912056;28;86590;-79
2022/06/02 03:04:07;;;;;;;6.50;4.10;;;15.40;99.90;;;;;;4911614;28;86800;-79
2022/06/02 03:06:37;;;;;;;8.38;4.55;;;15.40;99.90;;;;;;4911524;28;87284;-78
2022/06/02 03:09:12;;;;;;;8.15;4.88;;;15.40;99.90;;;;;;4912279;28;86410;-80
2022/06/02 03:11:52;;;;;;;8.80;4.72;;;15.30;99.90;;;;;;4923677;28;85962;-80
2022/06/02 03:14:59;;;;;;;7.78;4.40;;;15.30;99.90;;;;;;4918687;28;87571;-79
2022/06/02 03:17:47;;;;;;;8.98;4.60;;;15.30;99.90;;;;;;4914742;28;87692;-79
2022/06/02 03:20:34;;;;;;;8.63;4.97;;;15.30;99.90;;;;;;4915130;28;87621;-79
2022/06/02 03:23:28;;;;;;;7.95;4.60;;;15.30;99.90;;;;;;4921225;28;86685;-80
2022/06/02 03:26:00;;;;;;;10.95;5.85;;;15.30;99.90;;;;;;4923177;28;86571;-80
2022/06/02 03:28:51;;;;;;;8.63;5.05;;;15.20;99.90;;;;;;4922477;28;87267;-80
2022/06/02 03:31:36;;;;;;;8.10;4.55;;;15.10;99.90;;;;;;4922099;28;86693;-80
2022/06/02 03:34:13;;;;;;;13.10;6.45;;;15.20;99.90;;;;;;4922609;28;86598;-80
2022/06/02 03:36:50;;;;;;;7.38;4.43;;;15.10;99.90;;;;;;4912111;28;86846;-79
2022/06/02 03:39:37;;;;;;;9.25;5.55;;;15.10;99.90;;;;;;4912425;28;86927;-78
2022/06/02 03:42:22;;;;;;;9.48;4.97;;;15.10;99.90;;;;;;4912285;28;86807;-78
2022/06/02 03:45:08;;;;;;;8.10;4.95;;;15.10;99.90;;;;;;4911683;28;86662;-78
2022/06/02 03:47:58;;;;;;;9.52;5.25;;;15.00;99.90;;;;;;4910239;28;87733;-78
2022/06/02 03:50:59;;;;;;;8.35;4.63;;;15.00;99.90;;;;;;4911839;28;87678;-78
2022/06/02 03:53:46;;;;;;;15.35;6.00;;;15.10;99.90;;;;;;4852945;29;86428;-79
2022/06/02 03:56:20;;;;;;;9.20;5.70;;;15.20;99.90;;;;;;4914502;28;86822;-80
2022/06/02 03:59:13;;;;;;;7.13;4.72;;;15.20;99.90;;;;;;4922473;28;86547;-80
2022/06/02 04:01:41;;;;;;;8.48;4.97;;;15.30;99.90;;;;;;4918848;28;87446;-78
2022/06/02 04:04:19;;;;;;;7.15;4.40;;;15.30;99.90;;;;;;4916544;28;86710;-79
2022/06/02 04:07:19;;;;;;;7.47;4.47;;;15.40;99.90;;;;;;4916115;28;86133;-79
2022/06/02 04:09:51;;;;;;;10.40;5.15;;;15.50;99.90;;;;;;4914333;28;87809;-79
2022/06/02 04:15:29;;;;;;;7.93;4.93;;;15.60;99.90;;;;;;4914980;28;87759;-80
2022/06/02 04:18:01;;;;;;;9.35;4.47;;;15.60;99.90;;;;;;4917058;28;86818;-80
2022/06/02 04:20:45;;;;;;;10.10;5.72;;;15.60;99.90;;;;;;4914927;28;87723;-81
2022/06/02 04:23:53;;;;;;;5.10;2.88;;;15.50;99.90;;;;;;4915126;28;87836;-80
2022/06/02 04:26:49;;;;;;;6.05;3.47;;;15.40;99.90;;;;;;4916887;28;86786;-81
2022/06/02 04:29:45;;;;;;;5.25;2.65;;;15.40;99.90;;;;;;4915694;28;86960;-80
2022/06/02 04:32:20;;;;;;;6.65;2.83;;;15.50;99.90;;;;;;4927610;28;87983;-81
2022/06/02 04:35:23;;;;;;;5.20;2.53;;;15.60;99.90;;;;;;4934690;28;86256;-81
2022/06/02 04:38:19;;;;;;;6.10;2.10;;;15.80;99.90;;;;;;4934892;28;86847;-84
2022/06/02 04:41:53;;;;;;;4.05;1.63;;;15.90;99.90;;;;;;4934332;28;87227;-81
2022/06/02 04:44:55;;;;;;;3.83;1.50;;;16.00;99.90;;;;;;4874173;29;88793;-81
2022/06/02 04:47:50;;;;;;;3.85;1.70;;;16.10;99.90;;;;;;4841578;29;87111;-81
2022/06/02 04:50:42;;;;;;;5.18;1.30;;;16.20;99.90;;;;;;4928370;28;86814;-81
2022/06/02 04:53:10;;;;;;;3.15;1.20;;;16.40;99.90;;;;;;4934243;28;86537;-81
2022/06/02 04:55:38;;;;;;;5.82;1.77;;;16.50;99.90;;;;;;4935213;28;87173;-81
2022/06/02 04:58:10;;;;;;;2.75;1.38;;;16.60;99.90;;;;;;4934173;28;86808;-81
2022/06/02 05:01:02;;;;;;;3.70;1.52;;;16.70;99.90;;;;;;4933804;28;86675;-79
2022/06/02 05:03:51;;;;;;;3.65;1.33;;;16.90;99.90;;;;;;4932035;28;85590;-78
2022/06/02 05:06:28;;;;;;;3.38;1.40;;;17.00;99.90;;;;;;4934874;28;87046;-82
2022/06/02 05:09:00;;;;;;;3.22;1.10;;;17.10;99.90;;;;;;4934501;28;90269;-83
2022/06/02 05:11:44;;;;;;;5.47;1.60;;;17.20;99.90;;;;;;4935176;28;87664;-82
2022/06/02 05:14:34;;;;;;;6.80;1.52;;;17.10;99.90;;;;;;4935205;28;86333;-83
2022/06/02 05:17:32;;;;;;;4.10;1.70;;;17.40;99.90;;;;;;4935043;28;89330;-82
2022/06/02 05:20:23;;;;;;;3.40;1.30;;;17.50;99.90;;;;;;4934844;28;87710;-83
2022/06/02 05:22:55;;;;;;;4.35;1.75;;;17.60;99.90;;;;;;4935698;28;86799;-83
2022/06/02 05:25:40;;;;;;;3.60;1.80;;;17.80;99.90;;;;;;4934847;28;86635;-82
2022/06/02 05:28:11;;;;;;;4.20;1.45;;;17.90;99.90;;;;;;4937707;28;86653;-82
2022/06/02 05:30:40;;;;;;;5.85;1.80;;;17.80;99.90;;;;;;4937579;28;86153;-81
2022/06/02 05:33:43;;;;;;;3.35;1.73;;;17.50;99.90;;;;;;4938944;28;86678;-82
2022/06/02 05:36:33;;;;;;;4.53;1.98;;;17.00;99.90;;;;;;4939663;28;87161;-82
2022/06/02 05:39:05;;;;;;;3.53;2.00;;;16.80;99.90;;;;;;4938391;28;88715;-81
2022/06/02 05:42:02;;;;;;;3.28;1.60;;;16.70;99.90;;;;;;4936090;28;87966;-82
2022/06/02 05:45:04;;;;;;;4.78;1.85;;;16.90;99.90;;;;;;4901415;28;86983;-82
2022/06/02 05:47:57;;;;;;;3.40;1.63;;;17.30;99.90;;;;;;4933391;28;86729;-82
2022/06/02 05:50:32;;;;;;;7.18;1.63;;;17.60;99.90;;;;;;4933880;28;87194;-83
2022/06/02 05:53:06;;;;;;;3.92;2.20;;;17.70;99.90;;;;;;4926216;28;86611;-82
2022/06/02 05:55:55;;;;;;;4.85;2.30;;;17.70;99.90;;;;;;4915278;28;86673;-82
2022/06/02 05:58:53;;;;;;;6.15;2.53;;;17.60;99.90;;;;;;4914817;28;85935;-82
2022/06/02 06:01:28;;;;;;;5.22;2.03;;;17.60;99.90;;;;;;4914046;28;86848;-82
2022/06/02 06:03:59;;;;;;;8.82;2.25;;;17.60;99.90;;;;;;4910133;28;87370;-84
2022/06/02 06:06:52;;;;;;;5.75;2.47;;;18.00;99.90;;;;;;4920286;28;87705;-83
2022/06/02 06:09:46;;;;;;;3.53;2.28;;;17.90;99.90;;;;;;4932348;28;86674;-83
2022/06/02 06:12:39;;;;;;;6.10;2.47;;;17.80;99.90;;;;;;4931454;28;88334;-84
2022/06/02 06:15:19;;;;;;;4.05;2.00;;;17.80;99.90;;;;;;4933446;28;87523;-82
2022/06/02 06:18:10;;;;;;;5.10;2.33;;;17.90;99.90;;;;;;4932035;28;86689;-88
2022/06/02 06:21:07;;;;;;;4.13;2.40;;;17.90;99.90;;;;;;4932821;28;86792;-82
2022/06/02 06:23:48;;;;;;;7.30;2.75;;;17.90;99.90;;;;;;4932906;28;86727;-82
2022/06/02 06:26:33;;;;;;;4.38;2.53;;;17.80;99.90;;;;;;4934414;28;86097;-82
2022/06/02 06:29:32;;;;;;;4.35;2.38;;;17.80;99.90;;;;;;4932492;28;86312;-83
2022/06/02 06:32:13;;;;;;;4.43;2.35;;;17.90;99.90;;;;;;4932726;28;86685;-83
2022/06/02 06:35:02;;;;;;;5.30;2.08;;;18.00;99.90;;;;;;4931029;28;88606;-84
2022/06/02 06:37:57;;;;;;;3.50;2.20;;;18.20;99.90;;;;;;4923585;28;88794;-85
2022/06/02 06:40:50;;;;;;;5.05;2.85;;;18.60;99.90;;;;;;4907059;28;86823;-84
2022/06/02 06:43:45;;;;;;;6.20;2.60;;;19.50;99.90;;;;;;4932658;28;86876;-82
2022/06/02 06:46:24;;;;;;;7.72;4.68;;;20.30;97.30;;;;;;4930756;28;87446;-82
2022/06/02 06:49:02;;;;;;;5.43;2.55;;;21.10;94.70;;;;;;4928852;28;86690;-81
2022/06/02 06:51:34;;;;;;;11.18;2.92;;;21.70;90.10;;;;;;4925498;28;86967;-82
2022/06/02 06:54:08;;;;;;;5.07;2.63;;;23.40;83.40;;;;;;4913205;28;85958;-81
2022/06/02 06:57:08;;;;;;;5.38;2.78;;;25.30;74.30;;;;;;4922241;28;86703;-82
2022/06/02 06:59:52;;;;;;;7.40;3.95;;;27.30;69.90;;;;;;4902526;28;88509;-82
2022/06/02 07:02:28;;;;;;;5.25;3.15;;;28.50;60.10;;;;;;4917283;28;87656;-81
2022/06/02 07:05:03;;;;;;;5.32;3.42;;;29.40;58.50;;;;;;4930038;28;86832;-83
2022/06/02 07:08:01;;;;;;;3.97;3.15;;;28.90;57.90;;;;;;4929997;28;86885;-83
2022/06/02 07:10:37;;;;;;;5.03;2.72;;;27.50;58.70;;;;;;4927381;28;90233;-83
2022/06/02 07:13:24;;;;;;;4.35;2.75;;;26.30;63.70;;;;;;4930236;28;86641;-84
2022/06/02 07:16:36;;;;;;;4.40;2.78;;;26.40;62.60;;;;;;4929879;28;86740;-84
2022/06/02 07:19:24;;;;;;;4.78;2.95;;;25.50;62.50;;;;;;4911344;28;86850;-83
2022/06/02 07:22:14;;;;;;;5.25;2.67;;;23.80;68.90;;;;;;4912212;28;87069;-82
2022/06/02 07:25:13;;;;;;;4.63;2.63;;;22.90;71.00;;;;;;4914717;28;86899;-82
2022/06/02 07:28:05;;;;;;;5.28;2.95;;;22.30;75.10;;;;;;4927733;28;86859;-84
2022/06/02 07:30:37;;;;;;;7.22;3.30;;;21.80;77.40;;;;;;4903264;28;89311;-82
2022/06/02 07:33:40;;;;;;;3.88;2.42;;;21.70;78.80;;;;;;4911498;28;88556;-82
2022/06/02 07:36:14;;;;;;;5.85;2.90;;;23.20;75.10;;;;;;4912180;28;87065;-82
2022/06/02 07:38:59;;;;;;;3.88;2.05;;;25.60;67.30;;;;;;4928274;28;86951;-83
2022/06/02 07:41:59;;;;;;;4.85;2.10;;;25.90;64.70;;;;;;4929721;28;86820;-84
2022/06/02 07:44:30;;;;;;;4.22;2.50;;;27.70;61.90;;;;;;4929944;28;86949;-83
2022/06/02 07:47:08;;;;;;;2.88;2.38;;;28.70;58.00;;;;;;4929654;28;86883;-83
2022/06/02 07:49:39;;;;;;;3.47;1.95;;;29.60;55.10;;;;;;4929259;28;86205;-84
2022/06/02 07:52:42;;;;;;;4.20;2.80;;;29.10;56.40;;;;;;4928847;28;87367;-84
2022/06/02 07:55:29;;;;;;;4.63;3.17;;;28.90;57.20;;;;;;4929848;28;86616;-83
2022/06/02 07:58:26;;;;;;;3.90;3.15;;;30.00;58.40;;;;;;4928134;28;87425;-84
2022/06/02 08:01:01;;;;;;;4.75;2.90;;;30.40;56.10;;;;;;4929038;28;86587;-84
2022/06/02 08:03:58;;;;;;;5.68;2.90;;;29.20;54.80;;;;;;4929595;28;87326;-84
2022/06/02 08:06:42;;;;;;;4.93;2.42;;;28.40;58.90;;;;;;4907227;28;87058;-86
2022/06/02 08:09:29;;;;;;;3.65;1.50;;;31.20;57.10;;;;;;4911060;28;87025;-84
2022/06/02 08:12:00;;;;;;;5.13;1.77;;;35.40;47.40;;;;;;4929592;28;87000;-84
2022/06/02 08:15:07;;;;;;;2.78;1.73;;;38.10;44.50;;;;;;4930020;28;87203;-84
2022/06/02 08:17:53;;;;;;;1.85;1.45;;;38.50;41.80;;;;;;4921223;28;87607;-85
2022/06/02 08:20:32;;;;;;;2.63;1.70;;;37.90;40.20;;;;;;4930088;28;86548;-86
2022/06/02 08:23:11;;;;;;;2.30;1.48;;;37.80;40.00;;;;;;4933914;28;86878;-85
2022/06/02 08:25:55;;;;;;;1.65;1.08;;;38.30;39.70;;;;;;4929007;28;88211;-84
2022/06/02 08:28:29;;;;;;;1.85;1.23;;;38.50;39.60;;;;;;4927924;28;88267;-85
2022/06/02 08:31:33;;;;;;;2.97;1.70;;;39.50;38.00;;;;;;4927073;28;87057;-88
2022/06/02 08:34:26;;;;;;;2.97;2.08;;;39.70;38.80;;;;;;4927850;28;86892;-87
2022/06/02 08:36:52;;;;;;;2.55;1.50;;;38.00;38.20;;;;;;4928899;28;87662;-85
2022/06/02 08:39:27;;;;;;;1.55;1.02;;;34.10;41.40;;;;;;4929787;28;86980;-84
2022/06/02 08:42:04;;;;;;;4.47;2.80;;;31.70;45.20;;;;;;4931523;28;86879;-84
2022/06/02 08:44:42;;;;;;;2.50;1.45;;;33.00;45.50;;;;;;4933289;28;86371;-84
2022/06/02 08:47:29;;;;;;;1.98;1.05;;;34.40;42.60;;;;;;4932201;28;86884;-84
2022/06/02 08:50:16;;;;;;;2.35;1.40;;;35.80;41.60;;;;;;4933144;28;86901;-84
2022/06/02 08:53:03;;;;;;;2.53;1.30;;;36.70;40.50;;;;;;4921930;28;87452;-84
2022/06/02 08:56:15;;;;;;;2.03;1.75;;;37.60;39.90;;;;;;4932540;28;86947;-84
2022/06/02 08:59:17;;;;;;;1.95;1.42;;;41.00;37.60;;;;;;4894975;28;88231;-86
2022/06/02 09:02:33;;;;;;;7.38;2.08;;;42.00;35.10;;;;;;4922072;28;86956;-85
2022/06/02 09:05:21;;;;;;;2.70;1.42;;;42.60;35.20;;;;;;4931298;28;86968;-86
2022/06/02 09:07:56;;;;;;;3.63;2.67;;;44.20;34.30;;;;;;4931971;28;86968;-85
2022/06/02 09:10:34;;;;;;;2.55;1.67;;;44.50;33.20;;;;;;4932230;28;87355;-85
2022/06/02 09:13:47;;;;;;;3.00;1.88;;;43.10;34.20;;;;;;4931235;28;87152;-84
2022/06/02 09:16:22;;;;;;;2.83;2.50;;;42.60;32.70;;;;;;4923123;28;86938;-83
2022/06/02 09:19:14;;;;;;;3.05;2.22;;;40.80;35.20;;;;;;4934856;28;87069;-81
2022/06/02 09:22:04;;;;;;;2.42;2.00;;;39.90;35.10;;;;;;4915948;28;91763;-85
2022/06/02 09:25:28;;;;;;;2.35;1.50;;;37.90;36.90;;;;;;4931564;28;91282;-86
2022/06/02 09:28:21;;;;;;;2.60;1.40;;;35.40;38.90;;;;;;4929862;28;87047;-84
2022/06/02 09:30:56;;;;;;;1.95;1.17;;;33.20;43.00;;;;;;4935217;28;86977;-84
2022/06/02 09:34:16;;;;;;;2.53;2.03;;;32.20;44.30;;;;;;4952151;28;86850;-83
2022/06/02 09:36:54;;;;;;;4.20;2.72;;;31.70;48.70;;;;;;4890411;28;86940;-85
2022/06/02 09:39:48;;;;;;;4.35;2.90;;;30.90;49.80;;;;;;4951457;28;86696;-83
2022/06/02 09:42:35;;;;;;;4.75;2.97;;;30.10;51.50;;;;;;4951081;28;86367;-85
2022/06/02 09:45:09;;;;;;;4.95;2.97;;;28.70;54.90;;;;;;4911584;28;86973;-84
2022/06/02 09:47:41;;;;;;;6.50;3.30;;;27.90;55.90;;;;;;4941541;23;87931;-83
2022/06/02 09:50:18;;;;;;;4.57;2.97;;;26.70;58.80;;;;;;4913009;28;87734;-83
2022/06/02 09:53:02;;;;;;;3.53;2.67;;;26.00;60.00;;;;;;4912256;28;86980;-84
2022/06/02 09:56:00;;;;;;;4.88;2.78;;;25.60;61.30;;;;;;4912290;28;86950;-84
2022/06/02 09:58:25;;;;;;;3.72;2.22;;;25.40;62.50;;;;;;4887682;28;87296;-82
2022/06/02 10:01:10;;;;;;;3.78;2.95;;;25.60;61.60;;;;;;4912848;28;86565;-84
2022/06/02 10:03:58;;;;;;;4.97;2.90;;;26.30;59.90;;;;;;4912508;28;86891;-84
2022/06/02 10:06:46;;;;;;;5.65;3.22;;;26.80;59.20;;;;;;4912821;28;88845;-83
2022/06/02 10:09:24;;;;;;;4.28;2.47;;;26.30;58.90;;;;;;4913602;28;87280;-83
2022/06/02 10:15:46;;;;;;;5.13;2.55;;;26.10;61.70;;;;;;4912077;28;86836;-83
2022/06/02 10:18:45;;;;;;;5.25;2.53;;;26.40;60.00;;;;;;4883503;28;88060;-84
2022/06/02 10:21:32;;;;;;;3.67;2.45;;;26.30;60.60;;;;;;4912157;28;88232;-82
2022/06/02 10:24:30;;;;;;;4.25;2.60;;;26.50;60.90;;;;;;4915962;28;86873;-84
2022/06/02 10:27:14;;;;;;;3.97;2.40;;;27.10;59.70;;;;;;4930801;28;86705;-84
2022/06/02 10:29:59;;;;;;;4.95;3.22;;;28.30;58.10;;;;;;4908070;28;89236;-83
2022/06/02 10:32:30;;;;;;;3.97;2.67;;;28.80;55.60;;;;;;4924596;28;88213;-82
2022/06/02 10:35:33;;;;;;;5.45;3.17;;;28.90;57.70;;;;;;4912225;28;86835;-82
2022/06/02 10:38:23;;;;;;;4.35;2.88;;;29.10;55.60;;;;;;4913454;28;85468;-83
2022/06/02 10:41:12;;;;;;;4.05;2.63;;;29.20;54.30;;;;;;4912886;28;88766;-82
2022/06/02 10:43:40;;;;;;;;;;;29.20;53.30;;;;;;4913330;28;87892;-82
2022/06/02 10:46:17;;;;;;;6.88;3.55;;;29.10;55.10;;;;;;4912834;28;87739;-83
2022/06/02 10:49:04;;;;;;;4.30;2.83;;;28.20;54.40;;;;;;4912755;28;86667;-82
2022/06/02 10:51:39;;;;;;;4.53;2.70;;;27.90;55.90;;;;;;4912991;28;86760;-82
2022/06/02 10:54:43;;;;;;;4.47;2.42;;;27.40;59.10;;;;;;4912147;28;86722;-81
2022/06/02 10:57:30;;;;;;;5.28;3.63;;;27.30;60.10;;;;;;4912047;28;86676;-81
2022/06/02 11:00:38;;;;;;;4.40;3.22;;;27.20;59.00;;;;;;4912006;28;86637;-83
2022/06/02 11:03:22;;;;;;;5.10;3.13;;;27.10;61.10;;;;;;4911995;28;87636;-80
2022/06/02 11:06:28;;;;;;;5.53;3.47;;;26.70;64.10;;;;;;4911935;28;86908;-81
2022/06/02 11:09:13;;;;;;;5.47;2.72;;;26.30;63.60;;;;;;4913299;28;86209;-80
2022/06/02 11:12:06;;;;;;;5.35;2.58;;;26.00;63.30;;;;;;4912384;28;86857;-80
2022/06/02 11:15:16;;;;;;;4.38;2.95;;;25.30;63.20;;;;;;4910998;28;87843;-79
2022/06/02 11:17:51;;;;;;;5.10;2.35;;;25.00;67.50;;;;;;4911101;28;88037;-80
2022/06/02 11:20:17;;;;;;;;;;;25.30;65.60;;;;;;4912035;28;86402;-80
2022/06/02 11:23:13;;;;;;;3.97;2.45;;;25.30;64.20;;;;;;4911997;28;86691;-80
2022/06/02 11:25:39;;;;;;;4.90;2.80;;;24.90;65.10;;;;;;4910392;28;87935;-79
2022/06/02 11:28:22;;;;;;;4.95;2.92;;;24.80;67.80;;;;;;4910984;28;86944;-80
2022/06/02 11:30:56;;;;;;;4.78;2.33;;;24.80;68.30;;;;;;4911874;28;86664;-80
2022/06/02 11:33:34;;;;;;;5.20;3.00;;;25.10;69.90;;;;;;4912034;28;85973;-81
2022/06/02 11:36:12;;;;;;;5.88;2.72;;;25.10;66.60;;;;;;4911482;28;86750;-80
2022/06/02 11:39:15;;;;;;;3.92;2.53;;;25.20;68.20;;;;;;4910800;28;86807;-80
2022/06/02 11:42:14;;;;;;;3.30;2.55;;;25.50;65.50;;;;;;4910688;28;87599;-80
2022/06/02 11:45:21;;;;;;;4.10;2.67;;;25.40;63.80;;;;;;4911177;28;86788;-80
2022/06/02 11:48:18;;;;;;;4.10;2.75;;;25.60;66.50;;;;;;4901960;28;87764;-80
2022/06/02 11:50:52;;;;;;;5.03;3.03;;;25.00;65.20;;;;;;4911089;28;86638;-80
2022/06/02 11:53:44;;;;;;;5.35;2.40;;;24.90;69.40;;;;;;4910814;28;86696;-79
2022/06/02 11:56:46;;;;;;;6.30;2.25;;;24.90;68.40;;;;;;4910755;28;86370;-79
2022/06/02 11:59:33;;;;;;;3.40;1.77;;;25.20;68.40;;;;;;4910367;28;87099;-80
2022/06/02 12:02:35;;;;;;;3.95;1.60;;;25.10;67.60;;;;;;4910881;28;87289;-80
2022/06/02 12:05:19;;;;;;;2.28;1.52;;;25.20;67.00;;;;;;4910750;28;86667;-80
2022/06/02 12:08:23;;;;;;;4.35;2.05;;;24.90;64.50;;;;;;4911215;28;86677;-80
2022/06/02 12:11:04;;;;;;;4.13;2.30;;;24.60;68.60;;;;;;4910121;28;88712;-79
2022/06/02 12:13:42;;;;;;;4.82;2.58;;;24.80;67.30;;;;;;4910251;28;88888;-79
2022/06/02 12:16:19;;;;;;;4.90;2.03;;;24.90;67.90;;;;;;4909414;28;86669;-79
2022/06/02 12:19:29;;;;;;;3.45;1.15;;;24.90;67.60;;;;;;4913535;28;86745;-80
2022/06/02 12:22:09;;;;;;;3.80;1.13;;;24.90;66.10;;;;;;4906640;28;87135;-80
2022/06/02 12:24:49;;;;;;;2.60;1.20;;;25.10;64.60;;;;;;4913691;28;87070;-80
2022/06/02 12:27:57;;;;;;;2.08;0.80;;;25.30;66.20;;;;;;4914035;28;86812;-80
2022/06/02 12:30:22;;;;;;;2.05;1.30;;;25.60;64.20;;;;;;4914784;28;85901;-80
2022/06/02 12:33:06;;;;;;;3.28;1.55;;;25.60;62.60;;;;;;4913960;28;87556;-80
2022/06/02 12:35:47;;;;;;;4.03;1.65;;;25.50;65.20;;;;;;4914407;28;86992;-80
2022/06/02 12:38:46;;;;;;;2.33;1.00;;;25.50;64.90;;;;;;4913739;28;87794;-80
2022/06/02 12:41:27;;;;;;;4.05;0.90;;;25.30;63.60;;;;;;4913070;28;86655;-80
2022/06/02 12:44:16;;;;;;;1.95;0.88;;;25.50;65.60;;;;;;4910900;28;89978;-79
2022/06/02 12:47:22;;;;;;;4.03;1.00;;;25.80;64.20;;;;;;4909216;28;87463;-80
2022/06/02 12:50:06;;;;;;;1.70;1.08;;;25.60;64.10;;;;;;4910220;28;86678;-78
2022/06/02 12:52:53;;;;;;;3.53;1.20;;;25.20;62.90;;;;;;4911581;28;86762;-78
2022/06/02 12:55:33;;;;;;;2.28;0.98;;;25.00;64.00;;;;;;4911284;28;87624;-78
2022/06/02 12:58:17;;;;;;;2.67;1.20;;;25.00;64.60;;;;;;4911620;28;86904;-78
2022/06/02 13:01:02;;;;;;;1.90;0.70;;;24.80;63.20;;;;;;4911174;28;86935;-79
2022/06/02 13:03:49;;;;;;;2.78;0.93;;;25.00;65.80;;;;;;4912611;28;86860;-79
2022/06/02 13:06:23;;;;;;;3.10;1.02;;;25.30;64.20;;;;;;4912623;28;88678;-79
2022/06/02 13:09:14;;;;;;;1.80;0.90;;;25.50;63.50;;;;;;4913586;28;87971;-81
2022/06/02 13:11:59;;;;;;;2.03;1.05;;;25.70;63.00;;;;;;4913596;28;86688;-80
2022/06/02 13:14:52;;;;;;;2.60;0.82;;;26.10;60.70;;;;;;4913329;28;86678;-79
2022/06/02 13:17:39;;;;;;;3.08;0.98;;;26.20;59.90;;;;;;4913357;28;86698;-80
2022/06/02 13:20:43;;;;;;;3.17;1.00;;;26.20;60.40;;;;;;4913303;28;88373;-80
2022/06/02 13:23:34;;;;;;;2.03;0.82;;;26.60;58.80;;;;;;4912103;28;86722;-80
2022/06/02 13:29:46;;;;;;;2.17;0.63;;;26.40;59.50;;;;;;4902767;28;87169;-79
2022/06/02 13:32:34;;;;;;;3.55;1.23;;;26.40;57.00;;;;;;4912749;28;87048;-78
2022/06/02 13:35:09;;;;;;;1.90;0.90;;;26.40;58.90;;;;;;4912757;28;87630;-78
2022/06/02 13:38:14;;;;;;;3.20;1.13;;;26.50;59.60;;;;;;4911207;28;86690;-79
2022/06/02 13:40:42;;;;;;;1.90;0.73;;;26.70;58.90;;;;;;4913073;28;87393;-80
2022/06/02 13:43:23;;;;;;;1.90;0.80;;;26.70;56.40;;;;;;4912890;28;87951;-79
2022/06/02 13:46:03;;;;;;;4.18;1.23;;;26.30;58.60;;;;;;4913354;28;86701;-79
2022/06/02 13:48:56;;;;;;;2.92;1.13;;;26.50;59.60;;;;;;4913812;28;86298;-79
2022/06/02 13:51:37;;;;;;;1.70;0.82;;;26.80;59.90;;;;;;4914483;28;87643;-80
2022/06/02 13:57:38;;;;;;;1.83;0.90;;;26.00;58.00;;;;;;4914159;28;86834;-80
2022/06/02 14:00:28;;;;;;;3.75;0.73;;;25.80;59.90;;;;;;4915113;28;86411;-81
2022/06/02 14:03:15;;;;;;;2.20;0.80;;;25.70;60.50;;;;;;4912231;28;89154;-80
2022/06/02 14:06:07;;;;;;;1.83;0.85;;;25.50;59.40;;;;;;4912948;28;87838;-79
2022/06/02 14:08:33;;;;;;;5.10;0.75;;;25.60;60.70;;;;;;4912626;28;86817;-79
2022/06/02 14:11:23;;;;;;;2.05;1.23;;;25.70;58.80;;;;;;4913045;28;86374;-80
2022/06/02 14:14:22;;;;;;;1.88;0.82;;;25.60;60.40;;;;;;4913422;28;87278;-80
2022/06/02 14:17:14;;;;;;;1.70;0.88;;;25.60;58.60;;;;;;4914115;28;86960;-80
2022/06/02 14:20:01;;;;;;;1.17;0.50;;;25.80;59.40;;;;;;4915927;28;86680;-80
2022/06/02 14:22:41;;;;;;;2.88;0.70;;;26.20;58.00;;;;;;4915735;28;86054;-80
2022/06/02 14:25:31;;;;;;;1.08;0.60;;;26.40;57.00;;;;;;4916053;28;87539;-80
2022/06/02 14:28:15;;;;;;;2.17;1.02;;;26.60;55.60;;;;;;4913428;28;86901;-78
2022/06/02 14:30:56;;;;;;;3.88;0.82;;;26.50;59.00;;;;;;4910005;28;87627;-78
2022/06/02 14:33:24;;;;;;;2.47;0.73;;;26.30;59.90;;;;;;4910168;28;86292;-78
2022/06/02 14:36:08;;;;;;;1.45;0.80;;;26.20;60.80;;;;;;4909302;28;87283;-79
2022/06/02 14:39:05;;;;;;;2.15;0.80;;;26.30;59.40;;;;;;4909884;28;87429;-78
2022/06/02 14:41:41;;;;;;;2.33;0.90;;;26.30;59.80;;;;;;4909693;28;86778;-78
2022/06/02 14:44:16;;;;;;;1.77;0.88;;;26.30;60.10;;;;;;4909620;28;86376;-79
2022/06/02 14:47:09;;;;;;;3.13;0.90;;;26.20;59.70;;;;;;4909091;28;89047;-78
2022/06/02 14:49:40;;;;;;;2.10;0.88;;;26.70;60.10;;;;;;4909505;28;89248;-78
2022/06/02 14:52:09;;;;;;;2.42;0.70;;;26.90;58.90;;;;;;4909756;28;86881;-78
2022/06/02 14:54:44;;;;;;;3.83;1.45;;;26.90;58.50;;;;;;4909405;28;87073;-78
2022/06/02 14:57:31;;;;;;;1.88;0.65;;;26.80;58.90;;;;;;4908872;28;88554;-78
2022/06/02 15:00:37;;;;;;;1.70;0.60;;;26.80;57.90;;;;;;4909318;28;87916;-78
2022/06/02 15:03:37;;;;;;;1.63;0.70;;;26.60;59.10;;;;;;4850340;29;87163;-78
2022/06/02 15:06:19;;;;;;;1.95;0.50;;;26.30;58.00;;;;;;4884972;28;87061;-79
2022/06/02 15:08:57;;;;;;;2.90;1.00;;;26.10;57.50;;;;;;4909470;28;87501;-78
2022/06/02 15:11:43;;;;;;;4.45;1.08;;;26.00;58.90;;;;;;4909212;28;87251;-79
2022/06/02 15:14:39;;;;;;;2.10;0.70;;;26.00;59.60;;;;;;4909642;28;86708;-79
2022/06/02 15:17:52;;;;;;;4.55;1.00;;;26.10;59.00;;;;;;4909944;28;85984;-79
2022/06/02 15:20:30;;;;;;;2.78;0.80;;;26.20;59.50;;;;;;4884723;28;88244;-80
2022/06/02 15:23:33;;;;;;;2.88;1.00;;;26.40;58.10;;;;;;4909144;28;86834;-79
2022/06/02 15:26:36;;;;;;;1.52;0.70;;;26.20;57.20;;;;;;4908946;28;87611;-81
2022/06/02 15:29:49;;;;;;;2.42;0.95;;;26.20;57.90;;;;;;4911706;28;86586;-79
2022/06/02 15:33:10;;;;;;;3.08;1.25;;;26.10;60.00;;;;;;4911095;28;86873;-81
2022/06/02 15:35:51;;;;;;;2.33;1.10;;;25.90;61.90;;;;;;4876261;28;87337;-79
2022/06/02 15:38:39;;;;;;;2.60;0.80;;;25.80;60.90;;;;;;4910626;28;86713;-81
2022/06/02 15:41:47;;;;;;;3.20;1.10;;;25.70;61.90;;;;;;4910971;28;86308;-80
2022/06/02 15:44:42;;;;;;;3.88;0.95;;;25.80;60.80;;;;;;4909303;28;87241;-79
2022/06/02 15:47:20;;;;;;;3.67;1.10;;;25.90;60.10;;;;;;4909503;28;88338;-79
2022/06/02 15:50:25;;;;;;;2.42;0.90;;;25.60;59.20;;;;;;4910061;28;86821;-79
2022/06/02 15:52:51;;;;;;;2.13;0.95;;;25.30;60.70;;;;;;4879354;28;86900;-79
2022/06/02 15:55:38;;;;;;;3.40;0.77;;;25.20;62.00;;;;;;4905544;28;88140;-78
2022/06/02 15:58:25;;;;;;;4.35;0.93;;;25.20;62.90;;;;;;4907274;28;87924;-78
2022/06/02 16:01:32;;;;;;;2.35;1.15;;;25.30;62.30;;;;;;4906683;28;86745;-78
2022/06/02 16:04:26;;;;;;;3.17;1.00;;;25.30;62.00;;;;;;4906374;28;86843;-78
2022/06/02 16:07:10;;;;;;;1.52;0.88;;;25.40;61.30;;;;;;4907374;28;88634;-78
2022/06/02 16:13:16;;;;;;;3.10;0.82;;;25.20;62.80;;;;;;4904363;28;86844;-78
2022/06/02 16:15:42;;;;;;;3.33;1.15;;;25.00;62.60;;;;;;4907600;28;86299;-78
2022/06/02 16:18:44;;;;;;;2.80;0.98;;;24.70;61.50;;;;;;4906939;28;87305;-78
2022/06/02 16:21:22;;;;;;;2.95;0.70;;;24.70;62.70;;;;;;4907477;28;87031;-78
2022/06/02 16:24:27;;;;;;;3.10;0.93;;;24.60;61.40;;;;;;4907288;28;87600;-79
2022/06/02 16:27:26;;;;;;;2.95;0.82;;;24.70;61.70;;;;;;4908051;28;86677;-78
2022/06/02 16:30:04;;;;;;;1.95;0.80;;;24.70;63.10;;;;;;4907079;28;87027;-78
2022/06/02 16:32:47;;;;;;;1.75;0.90;;;24.70;61.70;;;;;;4907936;28;87371;-78
2022/06/02 16:35:27;;;;;;;3.35;0.75;;;24.60;62.10;;;;;;4908676;28;86901;-78
2022/06/02 16:38:27;;;;;;;2.60;1.05;;;24.60;63.40;;;;;;4908549;28;86640;-77
2022/06/02 16:41:11;;;;;;;2.78;0.90;;;24.70;62.30;;;;;;4908657;28;87264;-77
2022/06/02 16:44:01;;;;;;;5.38;0.82;;;24.90;63.10;;;;;;4909628;28;87024;-77
2022/06/02 16:46:33;;;;;;;1.70;0.52;;;25.20;63.20;;;;;;4908320;28;86690;-78
2022/06/02 16:49:11;;;;;;;4.20;0.77;;;25.20;61.50;;;;;;4909848;28;86840;-77
2022/06/02 16:51:43;;;;;;;2.08;0.70;;;25.30;62.10;;;;;;4909040;28;87670;-78
2022/06/02 16:54:23;;;;;;;5.97;0.70;;;25.00;63.30;;;;;;4909480;28;88462;-79
2022/06/02 16:57:09;;;;;;;3.50;0.63;;;24.80;63.10;;;;;;4908766;28;86683;-77
2022/06/02 16:59:58;;;;;;;2.00;0.93;;;24.60;63.80;;;;;;4908972;28;87041;-77
2022/06/02 17:02:45;;;;;;;4.78;0.90;;;24.60;64.70;;;;;;4909187;28;86832;-77
2022/06/02 17:05:20;;;;;;;2.38;0.70;;;24.60;65.00;;;;;;4912347;28;86954;-77
2022/06/02 17:08:07;;;;;;;2.47;0.63;;;24.80;63.00;;;;;;4914213;28;86791;-77
2022/06/02 17:10:37;;;;;;;1.75;0.75;;;24.90;63.20;;;;;;4913103;28;85874;-78
2022/06/02 17:13:25;;;;;;;2.30;1.00;;;24.90;63.30;;;;;;4912452;28;87184;-77
2022/06/02 17:16:05;;;;;;;2.30;0.70;;;24.90;61.10;;;;;;4911590;28;87020;-77
2022/06/02 17:18:55;;;;;;;2.13;0.90;;;24.70;62.40;;;;;;4910868;28;87232;-77
2022/06/02 17:21:57;;;;;;;1.65;0.77;;;24.40;63.10;;;;;;4911388;28;86834;-77
2022/06/02 17:24:38;;;;;;;2.13;0.80;;;24.30;63.90;;;;;;4913046;28;87706;-77
2022/06/02 17:27:42;;;;;;;3.13;0.75;;;24.20;65.30;;;;;;4911881;28;88516;-77
2022/06/02 17:30:21;;;;;;;2.72;0.90;;;24.50;64.70;;;;;;4910811;28;86009;-77
2022/06/02 17:33:44;;;;;;;1.98;0.95;;;24.50;63.50;;;;;;4911048;28;86740;-77